Time;durP1;ratioP1;P1;durP2;ratioP2;P2;SDS_P1;SDS_P2;PMS_P1;PMS_P2;Temp;Humidity;BMP_temperature;BMP_pressure;BME280_temperature;BME280_humidity;BME280_pressure;Samples;Min_cycle;Max_cycle;Signal;HPM_P1;HPM_P2
2022/03/01 00:01:38;;;;;;;8.13;2.95;;;4.10;67.70;;;;;;4992680;28;20061;-71
2022/03/01 00:04:05;;;;;;;6.28;2.90;;;4.20;67.10;;;;;;4992336;28;20477;-71
2022/03/01 00:06:32;;;;;;;6.03;2.67;;;4.20;67.30;;;;;;4990190;28;20436;-71
2022/03/01 00:08:59;;;;;;;7.15;2.90;;;4.30;67.00;;;;;;4991434;28;20042;-71
2022/03/01 00:11:28;;;;;;;6.57;2.58;;;4.30;66.60;;;;;;4993813;28;20038;-71
2022/03/01 00:13:55;;;;;;;6.55;2.67;;;4.20;66.90;;;;;;4988653;28;20413;-71
2022/03/01 00:16:22;;;;;;;7.93;2.50;;;4.20;67.20;;;;;;4989021;28;20050;-71
2022/03/01 00:18:50;;;;;;;8.05;2.67;;;4.20;67.10;;;;;;4989164;28;20045;-71
2022/03/01 00:21:17;;;;;;;10.18;3.20;;;4.00;68.20;;;;;;4990216;28;20145;-71
2022/03/01 00:23:44;;;;;;;8.80;2.50;;;3.80;68.00;;;;;;5004705;28;20062;-71
2022/03/01 00:26:11;;;;;;;7.22;2.97;;;3.70;68.10;;;;;;4991580;28;20076;-71
2022/03/01 00:28:38;;;;;;;7.63;3.05;;;3.80;68.40;;;;;;4991821;28;20064;-71
2022/03/01 00:31:05;;;;;;;10.65;2.88;;;3.80;68.90;;;;;;4974670;28;20759;-71
2022/03/01 00:33:32;;;;;;;8.20;2.75;;;3.80;68.20;;;;;;5005450;28;20038;-71
2022/03/01 00:35:59;;;;;;;9.75;3.65;;;3.90;68.00;;;;;;4991541;28;20061;-71
2022/03/01 00:38:27;;;;;;;7.90;2.85;;;3.90;67.80;;;;;;4993475;28;20050;-71
2022/03/01 00:40:54;;;;;;;6.53;2.60;;;3.80;68.10;;;;;;5005068;28;20061;-71
2022/03/01 00:43:22;;;;;;;7.15;2.78;;;3.70;68.20;;;;;;5008511;28;20452;-71
2022/03/01 00:45:51;;;;;;;9.32;3.00;;;3.90;67.90;;;;;;4991127;28;20053;-71
2022/03/01 00:48:19;;;;;;;6.95;3.80;;;4.00;67.30;;;;;;4989145;28;20070;-71
2022/03/01 00:50:47;;;;;;;7.68;2.58;;;3.80;67.40;;;;;;5005075;28;20424;-71
2022/03/01 00:53:14;;;;;;;6.25;2.10;;;3.70;68.10;;;;;;4990184;28;20077;-71
2022/03/01 00:55:41;;;;;;;7.38;2.67;;;3.60;68.50;;;;;;4987768;28;20054;-71
2022/03/01 00:58:08;;;;;;;7.55;3.10;;;3.60;68.80;;;;;;4993218;28;20866;-71
2022/03/01 01:00:35;;;;;;;5.38;2.53;;;3.60;68.40;;;;;;4988969;28;20065;-71
2022/03/01 01:03:03;;;;;;;8.18;3.28;;;3.70;68.00;;;;;;4993185;28;20054;-71
2022/03/01 01:05:30;;;;;;;7.68;2.67;;;3.60;68.00;;;;;;4990066;28;20042;-71
2022/03/01 01:07:57;;;;;;;10.95;3.38;;;3.60;68.20;;;;;;4985567;28;20054;-71
2022/03/01 01:10:25;;;;;;;7.15;2.60;;;3.70;68.00;;;;;;4988393;28;20891;-71
2022/03/01 01:12:52;;;;;;;4.95;1.88;;;4.00;67.10;;;;;;4990772;28;20052;-71
2022/03/01 01:15:20;;;;;;;8.60;2.95;;;3.90;66.90;;;;;;4971039;28;20053;-71
2022/03/01 01:17:47;;;;;;;4.72;2.40;;;3.90;67.30;;;;;;4991373;28;20042;-71
2022/03/01 01:20:16;;;;;;;4.97;1.98;;;3.80;67.10;;;;;;4989710;28;20135;-71
2022/03/01 01:22:44;;;;;;;6.38;2.63;;;4.00;66.60;;;;;;4994740;28;20508;-71
2022/03/01 01:25:25;;;;;;;5.32;1.85;;;3.90;66.20;;;;;;5007719;28;20065;-71
2022/03/01 01:27:55;;;;;;;6.93;2.03;;;3.80;66.70;;;;;;4990606;28;20602;-72
2022/03/01 01:30:25;;;;;;;7.60;2.47;;;3.70;66.70;;;;;;5006367;28;20409;-71
2022/03/01 01:32:53;;;;;;;5.63;2.40;;;3.70;67.50;;;;;;4987450;28;20434;-71
2022/03/01 01:35:22;;;;;;;6.50;2.72;;;3.80;66.80;;;;;;5003659;28;20080;-71
2022/03/01 01:37:51;;;;;;;8.80;3.03;;;3.70;67.30;;;;;;4969892;28;20096;-71
2022/03/01 01:40:21;;;;;;;8.50;3.17;;;3.90;66.50;;;;;;4990079;28;20046;-71
2022/03/01 01:42:49;;;;;;;11.93;4.38;;;3.60;67.30;;;;;;4988538;28;20512;-71
2022/03/01 01:45:21;;;;;;;11.85;5.07;;;3.60;67.40;;;;;;5007376;28;20042;-71
2022/03/01 01:47:49;;;;;;;10.20;4.25;;;3.70;67.30;;;;;;4975971;28;20131;-71
2022/03/01 01:50:17;;;;;;;7.32;3.72;;;3.50;67.50;;;;;;4989224;28;20046;-71
2022/03/01 01:52:49;;;;;;;9.77;3.20;;;3.60;67.80;;;;;;4991449;28;20049;-71
2022/03/01 01:55:18;;;;;;;9.73;2.88;;;3.70;67.10;;;;;;4988366;28;20054;-72
2022/03/01 01:57:45;;;;;;;6.93;2.95;;;3.70;67.20;;;;;;4989659;28;20117;-71
2022/03/01 02:00:13;;;;;;;5.85;2.40;;;3.60;67.30;;;;;;4989339;28;20046;-71
2022/03/01 02:02:41;;;;;;;7.25;2.00;;;3.60;67.00;;;;;;5003537;28;20129;-71
2022/03/01 02:05:09;;;;;;;7.88;2.80;;;3.60;67.30;;;;;;4991518;28;20405;-71
2022/03/01 02:07:37;;;;;;;7.40;2.75;;;3.60;67.30;;;;;;4990477;28;20197;-71
2022/03/01 02:10:07;;;;;;;6.57;2.80;;;3.60;67.50;;;;;;5009166;28;20523;-71
2022/03/01 02:12:35;;;;;;;5.07;2.50;;;3.50;67.50;;;;;;4988344;28;20042;-71
2022/03/01 02:15:02;;;;;;;4.88;2.10;;;3.30;68.20;;;;;;4989724;28;20445;-71
2022/03/01 02:17:30;;;;;;;7.32;2.58;;;3.30;68.10;;;;;;4987765;28;20128;-71
2022/03/01 02:19:58;;;;;;;5.60;2.08;;;3.30;68.50;;;;;;4990113;28;20046;-71
2022/03/01 02:22:34;;;;;;;7.53;2.65;;;3.50;67.80;;;;;;4989032;28;20088;-71
2022/03/01 02:25:01;;;;;;;6.45;1.98;;;3.30;68.10;;;;;;4989606;28;20050;-71
2022/03/01 02:27:30;;;;;;;5.68;2.13;;;3.20;68.80;;;;;;4991894;28;20125;-71
2022/03/01 02:29:57;;;;;;;5.70;2.58;;;3.20;68.90;;;;;;4992730;28;20108;-71
2022/03/01 02:32:24;;;;;;;10.70;2.95;;;3.20;69.00;;;;;;4989445;28;20058;-71
2022/03/01 02:34:51;;;;;;;9.32;3.17;;;3.20;69.00;;;;;;4990193;28;20081;-71
2022/03/01 02:37:18;;;;;;;9.23;3.97;;;3.10;68.90;;;;;;4993801;28;20077;-71
2022/03/01 02:39:45;;;;;;;6.05;2.35;;;3.10;69.30;;;;;;4993143;28;20053;-71
2022/03/01 02:42:12;;;;;;;5.55;2.30;;;2.90;69.90;;;;;;4994855;28;20069;-71
2022/03/01 02:44:39;;;;;;;8.38;1.80;;;2.80;70.10;;;;;;4994050;28;20042;-71
2022/03/01 02:47:06;;;;;;;7.68;2.72;;;2.80;70.50;;;;;;4977829;28;20045;-71
2022/03/01 02:49:34;;;;;;;5.63;2.22;;;2.80;70.30;;;;;;4992687;28;20569;-71
2022/03/01 02:52:01;;;;;;;8.20;2.63;;;2.80;69.80;;;;;;4996646;28;20160;-71
2022/03/01 02:54:28;;;;;;;6.57;2.90;;;2.90;69.80;;;;;;4993081;28;20045;-71
2022/03/01 02:56:59;;;;;;;8.63;2.05;;;3.00;69.40;;;;;;5007395;28;20049;-71
2022/03/01 02:59:26;;;;;;;6.70;2.42;;;2.90;69.80;;;;;;4994859;28;20038;-71
2022/03/01 03:01:53;;;;;;;5.47;2.00;;;2.90;69.70;;;;;;4991446;28;20505;-71
2022/03/01 03:04:20;;;;;;;5.10;2.17;;;2.80;69.80;;;;;;5006575;28;20053;-71
2022/03/01 03:06:49;;;;;;;4.45;2.10;;;2.70;69.80;;;;;;4993646;28;20045;-71
2022/03/01 03:09:16;;;;;;;4.93;2.05;;;2.80;69.90;;;;;;4991703;28;20441;-70
2022/03/01 03:11:44;;;;;;;6.10;2.30;;;2.80;69.70;;;;;;4988875;28;20045;-71
2022/03/01 03:14:11;;;;;;;6.03;2.10;;;2.80;69.50;;;;;;4995264;28;20053;-71
2022/03/01 03:16:39;;;;;;;5.25;2.35;;;2.90;68.70;;;;;;5010255;28;20698;-71
2022/03/01 03:19:06;;;;;;;4.78;1.75;;;2.80;69.30;;;;;;4993342;28;20046;-70
2022/03/01 03:21:33;;;;;;;6.47;1.73;;;2.80;69.20;;;;;;4995138;28;20050;-71
2022/03/01 03:24:00;;;;;;;6.00;2.42;;;2.80;69.10;;;;;;4996323;28;20050;-71
2022/03/01 03:26:27;;;;;;;7.00;2.92;;;2.90;68.90;;;;;;5009258;28;20054;-71
2022/03/01 03:28:54;;;;;;;7.75;2.55;;;2.90;68.50;;;;;;4993128;28;20136;-71
2022/03/01 03:31:21;;;;;;;10.02;2.90;;;2.80;68.40;;;;;;4993117;28;20105;-71
2022/03/01 03:33:48;;;;;;;5.75;1.88;;;2.80;69.10;;;;;;5008727;28;20072;-71
2022/03/01 03:36:15;;;;;;;7.65;2.20;;;2.70;68.80;;;;;;4982881;28;20086;-71
2022/03/01 03:38:43;;;;;;;3.95;2.13;;;2.90;68.40;;;;;;4994045;28;20049;-71
2022/03/01 03:41:10;;;;;;;4.68;1.58;;;3.10;68.00;;;;;;4993752;28;20476;-71
2022/03/01 03:43:37;;;;;;;7.43;3.00;;;3.00;67.20;;;;;;4994595;28;20501;-71
2022/03/01 03:46:04;;;;;;;7.70;2.38;;;3.00;67.40;;;;;;4992648;28;20050;-70
2022/03/01 03:48:31;;;;;;;8.15;3.00;;;3.00;67.60;;;;;;4990041;28;20043;-71
2022/03/01 03:50:58;;;;;;;7.18;2.00;;;3.00;67.30;;;;;;4993457;28;20081;-71
2022/03/01 03:53:25;;;;;;;5.70;2.65;;;2.80;67.90;;;;;;4989447;28;20064;-71
2022/03/01 03:55:54;;;;;;;6.28;2.00;;;3.10;67.00;;;;;;4993275;28;20693;-71
2022/03/01 03:58:21;;;;;;;3.15;1.40;;;3.00;67.30;;;;;;4988662;28;20581;-71
2022/03/01 04:00:49;;;;;;;5.57;1.75;;;3.10;67.00;;;;;;4990681;28;23099;-71
2022/03/01 04:03:17;;;;;;;5.38;1.77;;;3.00;67.10;;;;;;4992527;28;20038;-71
2022/03/01 04:05:45;;;;;;;5.20;1.75;;;2.80;67.70;;;;;;4992641;28;20111;-71
2022/03/01 04:08:13;;;;;;;4.60;1.80;;;2.70;67.80;;;;;;5009449;28;20917;-71
2022/03/01 04:10:40;;;;;;;4.03;1.95;;;2.80;68.20;;;;;;5008836;28;20049;-71
2022/03/01 04:13:07;;;;;;;7.20;2.67;;;2.90;67.70;;;;;;4995953;28;20046;-71
2022/03/01 04:15:35;;;;;;;4.03;1.42;;;3.00;67.10;;;;;;5008903;28;20065;-71
2022/03/01 04:18:03;;;;;;;7.55;2.63;;;3.10;66.80;;;;;;4988824;28;20069;-71
2022/03/01 04:20:31;;;;;;;6.15;2.40;;;3.00;67.00;;;;;;4990295;28;20041;-71
2022/03/01 04:22:58;;;;;;;7.18;2.50;;;2.90;67.40;;;;;;4990193;28;20092;-71
2022/03/01 04:25:25;;;;;;;7.70;2.50;;;3.00;67.10;;;;;;5005888;28;20042;-71
2022/03/01 04:27:52;;;;;;;4.72;2.33;;;2.80;67.40;;;;;;4992074;28;20108;-71
2022/03/01 04:30:19;;;;;;;5.35;2.05;;;2.80;67.70;;;;;;4992390;28;20042;-71
2022/03/01 04:32:46;;;;;;;6.80;1.95;;;2.70;67.70;;;;;;4994213;28;20947;-71
2022/03/01 04:35:14;;;;;;;6.82;2.47;;;2.60;68.10;;;;;;4993619;28;20136;-71
2022/03/01 04:37:42;;;;;;;6.38;2.28;;;2.80;68.10;;;;;;4991426;28;20435;-71
2022/03/01 04:40:12;;;;;;;6.95;1.88;;;2.70;67.70;;;;;;4992634;28;21153;-71
2022/03/01 04:42:40;;;;;;;7.07;2.25;;;2.70;68.30;;;;;;4991054;28;20116;-71
2022/03/01 04:45:09;;;;;;;7.97;2.40;;;2.70;67.90;;;;;;4994136;28;20046;-71
2022/03/01 04:47:37;;;;;;;6.47;2.28;;;2.70;67.60;;;;;;4992418;28;20053;-71
2022/03/01 04:50:06;;;;;;;6.25;2.03;;;2.80;67.50;;;;;;4994087;28;20057;-71
2022/03/01 04:52:33;;;;;;;11.55;1.67;;;2.80;67.50;;;;;;4994556;28;20112;-71
2022/03/01 04:55:00;;;;;;;6.68;2.10;;;3.00;67.00;;;;;;4992632;28;20116;-71
2022/03/01 04:57:27;;;;;;;7.32;2.42;;;2.90;66.90;;;;;;4994747;28;20508;-71
2022/03/01 04:59:54;;;;;;;6.25;2.00;;;2.80;67.30;;;;;;4989006;28;20070;-71
2022/03/01 05:02:21;;;;;;;6.10;1.85;;;2.90;66.90;;;;;;5006496;28;20453;-71
2022/03/01 05:04:48;;;;;;;6.57;1.65;;;2.80;67.50;;;;;;4992705;28;20042;-71
2022/03/01 05:07:18;;;;;;;5.93;1.70;;;2.80;66.90;;;;;;4994194;28;20042;-71
2022/03/01 05:09:45;;;;;;;4.25;1.55;;;2.80;67.30;;;;;;4992778;28;20057;-71
2022/03/01 05:12:12;;;;;;;6.03;1.70;;;2.70;67.00;;;;;;4990725;28;20205;-71
2022/03/01 05:14:39;;;;;;;4.72;1.60;;;2.90;67.00;;;;;;4992530;28;20076;-71
2022/03/01 05:17:06;;;;;;;7.45;2.28;;;3.00;66.20;;;;;;4985230;28;20049;-71
2022/03/01 05:19:34;;;;;;;6.78;2.60;;;2.70;66.80;;;;;;5003785;28;20042;-71
2022/03/01 05:22:01;;;;;;;10.95;2.53;;;2.80;67.10;;;;;;4989733;28;20049;-71
2022/03/01 05:24:28;;;;;;;7.57;3.30;;;3.00;66.40;;;;;;4974867;28;20069;-71
2022/03/01 05:26:55;;;;;;;10.68;3.13;;;2.90;66.30;;;;;;4987826;28;20042;-71
2022/03/01 05:29:22;;;;;;;9.10;3.28;;;2.90;66.40;;;;;;4990786;28;20853;-71
2022/03/01 05:31:49;;;;;;;11.35;3.47;;;2.70;66.90;;;;;;5007581;28;20665;-71
2022/03/01 05:34:17;;;;;;;9.93;3.47;;;2.70;67.00;;;;;;4993155;28;20513;-71
2022/03/01 05:36:48;;;;;;;5.25;2.60;;;2.70;67.00;;;;;;4991190;28;20049;-71
2022/03/01 05:39:15;;;;;;;8.63;3.08;;;2.70;66.90;;;;;;4988978;28;20109;-71
2022/03/01 05:41:42;;;;;;;8.20;3.40;;;2.90;66.90;;;;;;4992071;28;20038;-71
2022/03/01 05:44:09;;;;;;;7.15;2.50;;;3.10;65.90;;;;;;4989445;28;20117;-71
2022/03/01 05:46:36;;;;;;;4.95;2.00;;;3.00;65.80;;;;;;4991637;28;21277;-71
2022/03/01 05:49:03;;;;;;;9.20;2.70;;;2.80;66.70;;;;;;4992722;28;20054;-71
2022/03/01 05:51:30;;;;;;;7.47;2.85;;;2.70;66.80;;;;;;4972295;28;20050;-71
2022/03/01 05:53:57;;;;;;;5.93;2.42;;;2.70;66.90;;;;;;4989937;28;20858;-71
2022/03/01 05:56:24;;;;;;;5.45;2.30;;;2.60;67.30;;;;;;4991398;28;20046;-71
2022/03/01 05:58:51;;;;;;;6.82;2.80;;;2.60;67.50;;;;;;4973797;28;20061;-71
2022/03/01 06:01:18;;;;;;;7.13;2.85;;;2.50;67.70;;;;;;4989215;28;20751;-71
2022/03/01 06:03:45;;;;;;;5.72;2.58;;;2.40;67.90;;;;;;5006225;28;20121;-71
2022/03/01 06:06:12;;;;;;;6.35;1.92;;;2.60;67.80;;;;;;4991238;28;20062;-71
2022/03/01 06:08:39;;;;;;;6.55;2.25;;;2.80;67.10;;;;;;4989804;28;20148;-71
2022/03/01 06:11:07;;;;;;;10.30;2.63;;;2.90;66.80;;;;;;4974757;28;20057;-71
2022/03/01 06:13:34;;;;;;;8.57;2.53;;;2.70;66.90;;;;;;4995715;28;20037;-71
2022/03/01 06:16:01;;;;;;;12.95;4.03;;;2.90;66.60;;;;;;4995077;28;20128;-71
2022/03/01 06:18:28;;;;;;;12.68;4.90;;;3.00;66.30;;;;;;4995930;28;20128;-71
2022/03/01 06:20:55;;;;;;;12.13;4.05;;;2.90;66.40;;;;;;4993855;28;20112;-71
2022/03/01 06:23:23;;;;;;;9.05;3.25;;;3.20;66.00;;;;;;5000761;28;20038;-71
2022/03/01 06:25:50;;;;;;;8.10;3.10;;;3.30;65.50;;;;;;4991755;28;20133;-71
2022/03/01 06:28:17;;;;;;;10.80;3.35;;;3.40;65.00;;;;;;4995857;28;20042;-71
2022/03/01 06:30:44;;;;;;;8.30;3.13;;;3.30;65.10;;;;;;5010006;28;20125;-71
2022/03/01 06:33:12;;;;;;;10.60;2.85;;;3.40;65.20;;;;;;4995262;28;20038;-71
2022/03/01 06:35:39;;;;;;;5.15;2.10;;;3.20;65.10;;;;;;4992751;28;20049;-71
2022/03/01 06:38:06;;;;;;;5.95;2.42;;;3.40;65.00;;;;;;4996260;28;20120;-71
2022/03/01 06:40:33;;;;;;;6.07;2.20;;;3.50;64.70;;;;;;4992018;28;20568;-71
2022/03/01 06:43:00;;;;;;;7.05;3.00;;;3.70;64.50;;;;;;5008577;28;20088;-71
2022/03/01 06:45:28;;;;;;;6.05;2.20;;;3.70;64.30;;;;;;4999771;28;20045;-71
2022/03/01 06:47:55;;;;;;;7.55;2.42;;;3.80;63.40;;;;;;4995885;28;20065;-71
2022/03/01 06:50:22;;;;;;;5.47;1.77;;;3.90;63.30;;;;;;4994426;28;20049;-71
2022/03/01 06:52:49;;;;;;;5.63;1.88;;;3.90;63.00;;;;;;4994852;28;21004;-71
2022/03/01 06:55:16;;;;;;;6.80;1.63;;;4.00;63.10;;;;;;4994989;28;20057;-71
2022/03/01 06:57:43;;;;;;;5.80;1.90;;;4.00;63.00;;;;;;4990287;28;20149;-71
2022/03/01 07:00:12;;;;;;;8.35;1.83;;;4.00;63.10;;;;;;4992227;28;20046;-71
2022/03/01 07:02:40;;;;;;;5.82;1.50;;;4.10;63.00;;;;;;4973924;28;20042;-71
2022/03/01 07:05:10;;;;;;;6.75;2.40;;;4.30;62.80;;;;;;4995089;28;20042;-71
2022/03/01 07:07:37;;;;;;;3.67;1.60;;;4.40;62.30;;;;;;4993857;28;20053;-71
2022/03/01 07:10:06;;;;;;;5.88;1.70;;;4.40;62.10;;;;;;4991390;28;20041;-72
2022/03/01 07:12:34;;;;;;;4.53;1.67;;;4.40;61.90;;;;;;4990350;28;20493;-71
2022/03/01 07:15:01;;;;;;;8.25;2.67;;;4.50;61.80;;;;;;4973675;28;20124;-71
2022/03/01 07:17:28;;;;;;;4.55;2.08;;;4.60;61.30;;;;;;4992473;28;20050;-71
2022/03/01 07:19:55;;;;;;;4.28;1.65;;;4.70;60.90;;;;;;4994032;28;20461;-71
2022/03/01 07:22:25;;;;;;;6.22;1.95;;;4.60;61.00;;;;;;4994636;28;20050;-71
2022/03/01 07:24:57;;;;;;;6.10;2.45;;;4.60;61.00;;;;;;4991331;28;20117;-71
2022/03/01 07:27:27;;;;;;;8.40;2.80;;;4.70;61.00;;;;;;4975927;28;20042;-71
2022/03/01 07:29:55;;;;;;;7.50;2.08;;;4.80;61.40;;;;;;4993363;28;20450;-71
2022/03/01 07:32:23;;;;;;;4.95;1.80;;;4.90;61.10;;;;;;4991988;28;20564;-72
2022/03/01 07:34:50;;;;;;;4.55;1.80;;;4.90;60.60;;;;;;4990625;28;20147;-71
2022/03/01 07:37:17;;;;;;;3.60;1.38;;;5.00;60.50;;;;;;4992180;28;20921;-71
2022/03/01 07:39:47;;;;;;;8.13;1.52;;;5.20;60.10;;;;;;4990884;28;20097;-71
2022/03/01 07:42:15;;;;;;;7.30;2.10;;;5.40;59.70;;;;;;5007499;28;20517;-71
2022/03/01 07:44:42;;;;;;;5.25;1.50;;;5.50;59.60;;;;;;4994876;28;20527;-71
2022/03/01 07:47:09;;;;;;;7.18;1.95;;;5.60;59.10;;;;;;4990785;28;20050;-71
2022/03/01 07:49:36;;;;;;;3.70;1.25;;;5.40;58.50;;;;;;4994573;28;20057;-71
2022/03/01 07:52:03;;;;;;;4.45;1.60;;;5.60;58.80;;;;;;4992961;28;20127;-71
2022/03/01 07:54:30;;;;;;;3.72;0.80;;;5.70;58.70;;;;;;4990369;28;20050;-71
2022/03/01 07:56:57;;;;;;;1.73;0.60;;;5.70;57.60;;;;;;4991290;28;22344;-71
2022/03/01 07:59:24;;;;;;;2.60;0.70;;;5.80;57.50;;;;;;4991916;28;20536;-72
2022/03/01 08:01:54;;;;;;;2.90;0.90;;;5.90;57.20;;;;;;4990472;28;20417;-71
2022/03/01 08:04:21;;;;;;;4.28;0.65;;;6.00;56.80;;;;;;4991142;28;20038;-71
2022/03/01 08:06:49;;;;;;;1.63;0.60;;;6.00;56.70;;;;;;4990896;28;20046;-71
2022/03/01 08:09:16;;;;;;;1.90;0.52;;;6.10;55.70;;;;;;4992148;28;20038;-71
2022/03/01 08:11:43;;;;;;;1.48;0.47;;;6.00;55.50;;;;;;4988372;28;20057;-72
2022/03/01 08:14:10;;;;;;;2.97;1.13;;;6.10;55.50;;;;;;4989219;28;20134;-71
2022/03/01 08:16:37;;;;;;;3.03;0.88;;;6.20;56.40;;;;;;4988704;28;20048;-71
2022/03/01 08:19:04;;;;;;;5.70;1.10;;;6.20;55.00;;;;;;5002957;28;20119;-71
2022/03/01 08:21:32;;;;;;;1.48;0.75;;;6.30;55.20;;;;;;4992838;28;20046;-71
2022/03/01 08:23:59;;;;;;;3.40;0.82;;;6.40;55.00;;;;;;4985886;28;20117;-72
2022/03/01 08:26:26;;;;;;;1.63;0.40;;;6.50;54.60;;;;;;4992922;28;20046;-71
2022/03/01 08:28:56;;;;;;;2.85;0.73;;;6.60;54.70;;;;;;5003234;28;20208;-72
2022/03/01 08:31:23;;;;;;;2.45;0.70;;;6.80;53.70;;;;;;4986564;28;20046;-71
2022/03/01 08:33:50;;;;;;;1.50;0.65;;;6.90;53.80;;;;;;4987802;28;20042;-72
2022/03/01 08:36:17;;;;;;;3.85;0.73;;;6.90;52.90;;;;;;4990930;28;20049;-71
2022/03/01 08:38:44;;;;;;;1.27;0.55;;;6.90;52.90;;;;;;4990463;28;20135;-72
2022/03/01 08:41:11;;;;;;;4.25;0.73;;;6.90;52.70;;;;;;4986324;28;20532;-71
2022/03/01 08:43:38;;;;;;;2.25;0.52;;;7.00;53.40;;;;;;4992056;28;20105;-71
2022/03/01 08:46:09;;;;;;;1.83;0.70;;;7.10;52.80;;;;;;4992560;28;20050;-72
2022/03/01 08:48:36;;;;;;;2.45;0.70;;;7.30;52.80;;;;;;4994790;28;20046;-72
2022/03/01 08:51:03;;;;;;;1.45;0.70;;;7.50;52.50;;;;;;5007916;28;20579;-72
2022/03/01 08:53:31;;;;;;;1.52;0.40;;;7.70;51.80;;;;;;4993183;28;20049;-72
2022/03/01 08:56:00;;;;;;;3.00;0.75;;;7.70;50.70;;;;;;4995301;28;20049;-71
2022/03/01 08:58:27;;;;;;;3.72;1.42;;;7.80;51.10;;;;;;4992467;28;20081;-71
2022/03/01 09:00:54;;;;;;;2.10;0.50;;;7.80;50.80;;;;;;4990895;28;20512;-71
2022/03/01 09:03:23;;;;;;;3.60;0.70;;;7.80;50.20;;;;;;4990993;28;23569;-71
2022/03/01 09:06:10;;;;;;;2.50;0.47;;;7.80;50.50;;;;;;4989354;28;20073;-72
2022/03/01 09:08:40;;;;;;;3.47;0.70;;;7.90;51.20;;;;;;4992814;28;20124;-72
2022/03/01 09:11:11;;;;;;;5.57;1.30;;;7.90;51.30;;;;;;5008323;28;20137;-71
2022/03/01 09:13:39;;;;;;;2.85;0.80;;;7.80;50.40;;;;;;5007892;28;20971;-71
2022/03/01 09:16:07;;;;;;;2.78;0.68;;;8.00;50.90;;;;;;4988803;28;20073;-72
2022/03/01 09:18:35;;;;;;;3.78;0.88;;;8.30;50.80;;;;;;4992577;28;20046;-71
2022/03/01 09:21:04;;;;;;;3.67;1.02;;;8.30;49.80;;;;;;4990989;28;20105;-72
2022/03/01 09:23:31;;;;;;;3.40;0.40;;;8.50;50.80;;;;;;4991295;28;20085;-72
2022/03/01 09:25:58;;;;;;;1.48;0.45;;;8.60;48.20;;;;;;4992825;28;20065;-72
2022/03/01 09:28:26;;;;;;;1.85;0.57;;;8.60;47.60;;;;;;4987105;28;20099;-72
2022/03/01 09:30:53;;;;;;;2.67;0.35;;;8.70;47.70;;;;;;5005163;28;20816;-72
2022/03/01 09:33:20;;;;;;;1.42;0.52;;;8.80;48.00;;;;;;4993552;28;20050;-71
2022/03/01 09:35:47;;;;;;;5.00;1.40;;;8.80;46.90;;;;;;4998434;28;20033;-72
2022/03/01 09:38:14;;;;;;;3.30;0.30;;;8.80;46.70;;;;;;5001175;28;20168;-72
2022/03/01 09:40:47;;;;;;;2.55;0.45;;;8.90;47.60;;;;;;4992830;28;20058;-71
2022/03/01 09:43:15;;;;;;;1.55;0.50;;;9.00;46.50;;;;;;4990093;28;20046;-72
2022/03/01 09:45:42;;;;;;;1.65;0.60;;;9.00;47.60;;;;;;5000633;28;20038;-72
2022/03/01 09:48:09;;;;;;;3.72;0.30;;;9.20;46.10;;;;;;4993173;28;21033;-72
2022/03/01 09:50:36;;;;;;;1.45;0.40;;;9.20;45.90;;;;;;4973347;28;20239;-72
2022/03/01 09:53:04;;;;;;;2.22;0.30;;;9.10;45.50;;;;;;4992633;28;20049;-72
2022/03/01 09:55:31;;;;;;;2.35;0.45;;;9.10;45.60;;;;;;5005905;28;20066;-72
2022/03/01 09:57:58;;;;;;;1.17;0.57;;;9.10;45.70;;;;;;4989939;28;20160;-71
2022/03/01 10:00:26;;;;;;;3.60;0.68;;;9.30;47.10;;;;;;4972427;28;20681;-71
2022/03/01 10:02:55;;;;;;;3.03;1.10;;;9.50;46.80;;;;;;4991208;28;22270;-71
2022/03/01 10:05:38;;;;;;;5.00;0.80;;;9.60;45.50;;;;;;4990047;28;20045;-71
2022/03/01 10:08:17;;;;;;;2.78;0.50;;;9.60;45.40;;;;;;4988883;28;20045;-71
2022/03/01 10:10:50;;;;;;;1.60;0.35;;;9.70;45.40;;;;;;5004369;28;20045;-72
2022/03/01 10:13:27;;;;;;;2.60;0.40;;;9.70;44.60;;;;;;4991959;28;20068;-72
2022/03/01 10:16:04;;;;;;;3.75;0.55;;;9.80;43.60;;;;;;4990148;28;20046;-71
2022/03/01 10:18:43;;;;;;;1.50;0.40;;;9.80;44.10;;;;;;4992610;28;20041;-71
2022/03/01 10:21:12;;;;;;;1.13;0.40;;;9.80;44.60;;;;;;4993424;28;20053;-72
2022/03/01 10:23:49;;;;;;;3.25;0.50;;;10.00;43.90;;;;;;4991711;28;20588;-71
2022/03/01 10:26:25;;;;;;;2.95;0.50;;;10.00;43.00;;;;;;4987521;28;20045;-71
2022/03/01 10:29:00;;;;;;;2.35;0.70;;;10.10;44.80;;;;;;4990678;28;20105;-71
2022/03/01 10:31:31;;;;;;;2.47;0.32;;;10.20;42.70;;;;;;4989748;28;20050;-71
2022/03/01 10:34:06;;;;;;;3.00;0.68;;;10.20;42.80;;;;;;4992225;28;20057;-72
2022/03/01 10:36:35;;;;;;;2.13;0.73;;;10.30;43.00;;;;;;4991321;28;20826;-72
2022/03/01 10:39:10;;;;;;;2.90;0.50;;;10.20;42.30;;;;;;4992595;28;20104;-72
2022/03/01 10:41:40;;;;;;;1.73;0.30;;;10.20;42.80;;;;;;4987850;28;20092;-71
2022/03/01 10:44:20;;;;;;;1.58;0.40;;;10.30;43.30;;;;;;4991308;28;20564;-71
2022/03/01 10:46:51;;;;;;;5.10;0.82;;;10.50;42.80;;;;;;4993079;28;20121;-72
2022/03/01 10:49:23;;;;;;;2.17;0.75;;;10.50;42.30;;;;;;4988465;28;20428;-72
2022/03/01 10:51:56;;;;;;;5.25;0.80;;;10.60;43.10;;;;;;4989205;28;20049;-71
2022/03/01 10:54:26;;;;;;;;;;;10.60;42.10;;;;;;4991590;28;20120;-71
2022/03/01 10:56:57;;;;;;;2.65;0.60;;;10.50;41.80;;;;;;4989095;28;19925;-71
2022/03/01 10:59:26;;;;;;;2.90;0.40;;;10.60;41.80;;;;;;4994983;28;20041;-71
2022/03/01 11:01:54;;;;;;;1.83;0.52;;;10.70;40.90;;;;;;4991878;28;20144;-73
2022/03/01 11:04:22;;;;;;;2.25;0.68;;;10.70;41.00;;;;;;4989726;28;20437;-72
2022/03/01 11:06:49;;;;;;;2.80;0.45;;;10.60;41.30;;;;;;4989614;28;20065;-71
2022/03/01 11:09:17;;;;;;;2.45;0.50;;;10.70;40.70;;;;;;4993240;28;20049;-72
2022/03/01 11:11:47;;;;;;;3.25;0.93;;;10.70;39.60;;;;;;4992224;28;20108;-71
2022/03/01 11:14:18;;;;;;;1.55;0.63;;;11.00;40.30;;;;;;4994191;28;20052;-72
2022/03/01 11:16:58;;;;;;;4.70;0.70;;;11.10;39.70;;;;;;4990991;28;20042;-71
2022/03/01 11:19:41;;;;;;;2.35;0.40;;;11.20;39.20;;;;;;4991071;28;20057;-72
2022/03/01 11:22:41;;;;;;;1.42;0.40;;;11.00;39.40;;;;;;5006978;28;20118;-72
2022/03/01 11:25:24;;;;;;;2.55;0.50;;;10.90;40.30;;;;;;4982616;28;20091;-73
2022/03/01 11:28:08;;;;;;;1.40;0.60;;;10.80;38.70;;;;;;5009238;28;20507;-73
2022/03/01 11:30:38;;;;;;;1.73;0.52;;;10.80;40.30;;;;;;4992879;28;20058;-73
2022/03/01 11:33:06;;;;;;;3.00;0.65;;;10.80;39.40;;;;;;4993410;28;20041;-72
2022/03/01 11:35:36;;;;;;;4.00;0.82;;;11.00;40.00;;;;;;4973179;28;20073;-72
2022/03/01 11:38:15;;;;;;;2.25;0.60;;;10.90;39.60;;;;;;4992779;28;20057;-72
2022/03/01 11:40:52;;;;;;;1.85;0.70;;;10.70;39.40;;;;;;4992844;28;20049;-72
2022/03/01 11:43:21;;;;;;;4.63;0.70;;;10.90;41.00;;;;;;4990550;28;20478;-72
2022/03/01 11:45:51;;;;;;;1.95;0.70;;;10.90;40.80;;;;;;4994112;28;20623;-72
2022/03/01 11:48:24;;;;;;;2.60;0.80;;;11.00;40.40;;;;;;4995325;28;20101;-72
2022/03/01 11:51:03;;;;;;;2.47;0.60;;;11.00;40.60;;;;;;5005245;28;23650;-73
2022/03/01 11:53:35;;;;;;;2.40;0.82;;;11.20;40.60;;;;;;5007273;28;20054;-73
2022/03/01 11:56:05;;;;;;;3.75;0.90;;;11.20;40.60;;;;;;4988975;28;20065;-73
2022/03/01 11:58:34;;;;;;;3.13;0.88;;;11.20;39.30;;;;;;4990066;28;20853;-73
2022/03/01 12:01:06;;;;;;;2.28;0.40;;;11.00;39.70;;;;;;4989832;28;20169;-73
2022/03/01 12:03:38;;;;;;;2.17;1.20;;;11.00;39.90;;;;;;4991295;28;20505;-73
2022/03/01 12:06:06;;;;;;;3.78;0.80;;;11.00;39.30;;;;;;4993807;28;20074;-74
2022/03/01 12:08:38;;;;;;;1.77;0.70;;;10.90;40.00;;;;;;4992801;28;20081;-73
2022/03/01 12:11:05;;;;;;;2.70;0.77;;;10.80;39.40;;;;;;4996831;28;20053;-74
2022/03/01 12:13:42;;;;;;;2.30;0.60;;;10.70;39.60;;;;;;4989348;28;20514;-74
2022/03/01 12:16:12;;;;;;;2.80;0.82;;;10.70;39.20;;;;;;4992837;28;20042;-72
2022/03/01 12:18:42;;;;;;;2.65;1.08;;;10.90;38.90;;;;;;4990998;28;20049;-72
2022/03/01 12:21:13;;;;;;;2.20;0.70;;;11.10;38.40;;;;;;4989949;28;20049;-72
2022/03/01 12:23:43;;;;;;;2.17;0.77;;;11.40;38.40;;;;;;4990465;28;20046;-72
2022/03/01 12:26:12;;;;;;;2.85;0.98;;;11.60;37.70;;;;;;4988862;28;20050;-71
2022/03/01 12:28:42;;;;;;;4.07;0.93;;;11.70;37.60;;;;;;4990070;28;20445;-72
2022/03/01 12:31:20;;;;;;;3.50;1.05;;;12.00;37.10;;;;;;4987825;28;20038;-72
2022/03/01 12:33:51;;;;;;;4.72;1.13;;;12.10;36.70;;;;;;4989614;28;20054;-72
2022/03/01 12:36:22;;;;;;;2.33;0.55;;;12.20;36.80;;;;;;5006624;28;20069;-72
2022/03/01 12:38:54;;;;;;;2.20;0.80;;;12.10;36.70;;;;;;4986762;28;20473;-72
2022/03/01 12:41:23;;;;;;;1.92;0.80;;;12.00;36.20;;;;;;4988116;28;20061;-72
2022/03/01 12:43:58;;;;;;;3.10;0.60;;;12.00;36.70;;;;;;4992785;28;20037;-73
2022/03/01 12:46:28;;;;;;;3.83;0.88;;;11.90;36.50;;;;;;5006206;28;20064;-72
2022/03/01 12:48:56;;;;;;;3.08;0.80;;;11.90;36.70;;;;;;4987311;28;20065;-72
2022/03/01 12:51:24;;;;;;;2.88;0.70;;;11.80;36.20;;;;;;4990106;28;20096;-72
2022/03/01 12:53:54;;;;;;;3.10;1.35;;;11.70;37.00;;;;;;4990660;28;20056;-72
2022/03/01 12:56:24;;;;;;;4.10;1.00;;;11.70;36.70;;;;;;4988927;28;20046;-72
2022/03/01 12:58:53;;;;;;;3.17;0.85;;;11.80;37.20;;;;;;4991826;28;22292;-72
2022/03/01 13:01:21;;;;;;;2.70;1.00;;;11.90;36.60;;;;;;4991994;28;20167;-72
2022/03/01 13:03:50;;;;;;;2.88;1.13;;;12.00;36.80;;;;;;4990863;28;20450;-71